Terminal Aerodrome Forecast
Issued by NWS

Home | Current Version | Previous Version | Text Only | Print | Product List | Glossary Off
Versions: 1 2 3 4 5 6 7 8 9 10 11 12 13 14 15 16 17 18 19 20 21

000
FTUS43 KGRB 311727
TAFRHI
TAF
KRHI 311727Z 3118/0118 09009G15KT P6SM SCT045
     FM010100 07002KT P6SM SCT250
     FM011600 11007G12KT P6SM SCT035=

USA.gov is the U.S. government's official web portal to all federal, state and local government web resources and services.